San Ramon de la Nueva Oran, Argentina
Current Conditions -  °F | °C
As of 8:00 PM on Wednesday 22 Oct 2014 (Local Time) from SLYA Reporting Station
Broken Clouds Broken Clouds  
Wind Chill: 31°   Ceiling: 2500
Heat Index: 32°   Visibility: 6mi
Dew Point: 18°   Wind: 5mph
Humidity: 46%   Direction: 60°ENE
Pressure: 29.88"   Gusts: NA
Location:  23.13°S, 64.33°W
Report Text: SLYA 222300Z 06004KT 9999 BKN025 BKN200 31/18 Q1012
Loading
Personal Weather Stations






























Interactive Weather Map
Tropical Storm Tracking
New forecast layout! Learn more

10-Day Weather Forecast

Advertisements
Track Severe Weather on mobile